Randalls Island, New York
Current Conditions -  °F | °C
As of 8:31 AM on Thursday 23 Oct 2014 (Local Time) from KNYC Reporting Station
Moderate Rain Moderate Rain  
Wind Chill: 50°   Ceiling: 1500
Heat Index: 50°   Visibility: 3mi
Dew Point: 47°   Wind: 7mph
Humidity: 89%   Direction: NA
Pressure: 29.73"   Gusts: NA
Location:  40.8022°N, 73.9368°W
Report Text: KNYC 231231Z AUTO VRB06KT 3SM RA BR BKN015 OVC020 10/08 A2973 RMK AO2 P0008 T01000083 $
Loading
Personal Weather Stations






























Interactive Weather Map
Tropical Storm Tracking
New forecast layout! Learn more

10-Day Weather Forecast

Advertisements
Track Severe Weather on mobile